createdAt,value
2023-04-21T00:01:40.426Z,9.10
2023-04-21T00:12:01.802Z,8.02
2023-04-21T00:22:23.010Z,9.93
2023-04-21T00:32:44.372Z,10.07
2023-04-21T00:43:09.050Z,8.38
2023-04-21T00:53:30.448Z,8.85
2023-04-21T01:03:52.197Z,8.68
2023-04-21T01:14:13.683Z,8.85
2023-04-21T01:24:39.280Z,9.43
2023-04-21T01:35:01.163Z,8.65
2023-04-21T01:45:22.565Z,10.38
2023-04-21T01:55:43.741Z,9.00
2023-04-21T02:06:05.203Z,9.20
2023-04-21T02:16:28.109Z,9.15
2023-04-21T02:26:49.359Z,6.90
2023-04-21T02:37:10.898Z,8.80
2023-04-21T02:47:32.297Z,10.57
2023-04-21T02:57:53.826Z,9.13
2023-04-21T03:08:17.073Z,9.50
2023-04-21T03:18:38.210Z,9.63
2023-04-21T03:29:00.048Z,8.75
2023-04-21T03:39:21.123Z,9.27
2023-04-21T03:49:44.981Z,9.30
2023-04-21T04:00:07.016Z,8.20
2023-04-21T04:10:33.827Z,9.73
2023-04-21T04:20:55.089Z,9.05
2023-04-21T04:31:17.635Z,7.40
2023-04-21T04:41:39.142Z,9.07
2023-04-21T04:52:00.183Z,9.02
2023-04-21T05:02:23.069Z,7.72
2023-04-21T05:12:44.795Z,7.85
2023-04-21T05:23:05.835Z,8.25
2023-04-21T05:33:27.172Z,10.52
2023-04-21T05:43:48.306Z,7.57
2023-04-21T05:54:09.517Z,7.63
2023-04-21T06:04:31.443Z,8.38
2023-04-21T06:14:57.640Z,8.70
2023-04-21T06:25:19.037Z,9.60
2023-04-21T06:35:39.980Z,7.75
2023-04-21T06:46:01.396Z,9.10
2023-04-21T06:56:22.539Z,8.55
2023-04-21T07:06:43.839Z,7.10
2023-04-21T07:17:04.919Z,6.68
2023-04-21T07:27:26.410Z,6.40
2023-04-21T07:37:47.725Z,7.10
2023-04-21T07:48:09.241Z,5.90
2023-04-21T07:58:30.540Z,6.68
2023-04-21T08:08:51.793Z,6.93
2023-04-21T08:19:12.835Z,6.75
2023-04-21T08:29:33.894Z,5.35
2023-04-21T08:39:55.153Z,6.20
2023-04-21T08:50:16.270Z,6.20
2023-04-21T09:00:38.052Z,7.65
2023-04-21T09:11:01.595Z,5.70
2023-04-21T09:21:30.677Z,6.22
2023-04-21T09:31:53.473Z,7.38
2023-04-21T09:42:14.534Z,5.55
2023-04-21T09:52:38.840Z,4.93
2023-04-21T10:03:05.490Z,5.50
2023-04-21T10:13:27.806Z,4.80
2023-04-21T10:23:50.082Z,5.05
2023-04-21T10:34:13.824Z,6.55
2023-04-21T10:44:35.024Z,4.45
2023-04-21T10:54:56.167Z,4.88
2023-04-21T11:05:18.226Z,4.63
2023-04-21T11:15:39.406Z,4.57
2023-04-21T11:26:00.400Z,4.85
2023-04-21T11:36:23.197Z,3.45
2023-04-21T11:46:47.473Z,4.90
2023-04-21T11:57:08.978Z,4.32
2023-04-21T12:07:36.487Z,5.75
2023-04-21T12:17:57.908Z,4.82
2023-04-21T12:28:19.460Z,3.63
2023-04-21T12:38:40.742Z,5.65
2023-04-21T12:49:01.861Z,4.68
2023-04-21T12:59:22.940Z,4.07
2023-04-21T13:09:44.324Z,3.97
2023-04-21T13:20:07.539Z,4.13
2023-04-21T13:30:29.252Z,5.22
2023-04-21T13:40:51.669Z,5.47
2023-04-21T13:51:12.941Z,8.65
2023-04-21T14:01:34.330Z,6.18
2023-04-21T14:11:56.042Z,3.20
2023-04-21T14:22:17.730Z,5.93
2023-04-21T14:32:39.696Z,4.70
2023-04-21T14:43:00.913Z,6.53
2023-04-21T14:53:22.546Z,3.83
2023-04-21T15:03:44.050Z,4.35
2023-04-21T15:14:05.890Z,5.40
2023-04-21T15:24:27.244Z,6.13
2023-04-21T15:34:49.364Z,4.30
2023-04-21T15:45:11.346Z,4.22
2023-04-21T15:55:34.126Z,7.97
2023-04-21T16:05:55.544Z,6.57
2023-04-21T16:16:17.129Z,5.72
2023-04-21T16:26:38.659Z,4.53
2023-04-21T16:36:59.525Z,4.57
2023-04-21T16:47:20.994Z,5.63
2023-04-21T16:57:42.348Z,8.82
2023-04-21T17:08:03.791Z,6.18
2023-04-21T17:18:25.327Z,6.20
2023-04-21T17:28:46.934Z,5.13
2023-04-21T17:39:08.540Z,7.32
2023-04-21T17:49:30.170Z,11.40
2023-04-21T17:59:51.493Z,8.60
2023-04-21T18:10:13.019Z,8.98
2023-04-21T18:20:34.388Z,6.90
2023-04-21T18:30:55.737Z,5.10
2023-04-21T18:41:16.927Z,4.65
2023-04-21T18:51:38.160Z,5.28
2023-04-21T19:01:59.650Z,4.00
2023-04-21T19:12:22.230Z,4.72
2023-04-21T19:22:44.629Z,5.03
2023-04-21T19:33:06.261Z,3.45
2023-04-21T19:43:28.926Z,4.45
2023-04-21T19:54:03.240Z,5.43
2023-04-21T20:04:32.262Z,5.47
2023-04-21T20:14:54.425Z,7.70
2023-04-21T20:25:17.701Z,5.15
2023-04-21T20:35:40.629Z,4.95
2023-04-21T20:46:02.091Z,5.70
2023-04-21T20:56:24.362Z,13.93
2023-04-21T21:06:45.895Z,4.97
2023-04-21T21:17:07.280Z,5.38
2023-04-21T21:27:28.954Z,4.45
2023-04-21T21:37:50.402Z,4.85
2023-04-21T21:48:11.622Z,5.53
2023-04-21T21:58:32.832Z,6.20
2023-04-21T22:08:54.388Z,4.70
2023-04-21T22:19:17.796Z,6.35
2023-04-21T22:29:39.354Z,4.20
2023-04-21T22:40:00.966Z,4.47
2023-04-21T22:50:22.733Z,5.18
2023-04-21T23:00:44.500Z,7.28
2023-04-21T23:11:05.943Z,4.30
2023-04-21T23:21:27.371Z,4.38
2023-04-21T23:31:48.467Z,4.38
2023-04-21T23:42:10.316Z,6.47
2023-04-21T23:52:31.853Z,5.22
